sensor_id;sensor_type;location;lat;lon;timestamp;pressure;altitude;pressure_sealevel;temperature;humidity
30554;BME280;17335;50.720;7.452;2023-05-02T00:00:49;99540.31;;;7.08;100.00
30554;BME280;17335;50.720;7.452;2023-05-02T00:03:16;99541.69;;;7.13;100.00
30554;BME280;17335;50.720;7.452;2023-05-02T00:05:43;99541.31;;;7.18;100.00
30554;BME280;17335;50.720;7.452;2023-05-02T00:08:10;99550.53;;;7.25;100.00
30554;BME280;17335;50.720;7.452;2023-05-02T00:10:37;99551.03;;;7.19;100.00
30554;BME280;17335;50.720;7.452;2023-05-02T00:13:04;99542.91;;;7.21;100.00
30554;BME280;17335;50.720;7.452;2023-05-02T00:15:30;99541.81;;;7.23;100.00
30554;BME280;17335;50.720;7.452;2023-05-02T00:17:56;99554.81;;;7.28;100.00
30554;BME280;17335;50.720;7.452;2023-05-02T00:20:23;99557.25;;;7.31;100.00
30554;BME280;17335;50.720;7.452;2023-05-02T00:22:50;99558.72;;;7.35;100.00
30554;BME280;17335;50.720;7.452;2023-05-02T00:25:17;99549.72;;;7.47;100.00
30554;BME280;17335;50.720;7.452;2023-05-02T00:27:43;99562.28;;;7.58;100.00
30554;BME280;17335;50.720;7.452;2023-05-02T00:30:12;99556.31;;;7.66;100.00
30554;BME280;17335;50.720;7.452;2023-05-02T00:32:39;99559.97;;;7.76;100.00
30554;BME280;17335;50.720;7.452;2023-05-02T00:35:06;99567.00;;;7.88;100.00
30554;BME280;17335;50.720;7.452;2023-05-02T00:37:34;99564.22;;;8.01;100.00
30554;BME280;17335;50.720;7.452;2023-05-02T00:40:01;99571.00;;;8.17;100.00
30554;BME280;17335;50.720;7.452;2023-05-02T00:42:28;99565.00;;;8.36;100.00
30554;BME280;17335;50.720;7.452;2023-05-02T00:44:59;99573.13;;;8.45;100.00
30554;BME280;17335;50.720;7.452;2023-05-02T00:47:26;99570.94;;;8.51;100.00
30554;BME280;17335;50.720;7.452;2023-05-02T00:49:52;99574.44;;;8.62;100.00
30554;BME280;17335;50.720;7.452;2023-05-02T00:52:19;99577.69;;;8.66;100.00
30554;BME280;17335;50.720;7.452;2023-05-02T00:54:46;99580.22;;;8.79;100.00
30554;BME280;17335;50.720;7.452;2023-05-02T00:57:12;99584.34;;;8.83;100.00
30554;BME280;17335;50.720;7.452;2023-05-02T00:59:39;99576.06;;;8.86;100.00
30554;BME280;17335;50.720;7.452;2023-05-02T01:02:20;99583.84;;;8.89;100.00
30554;BME280;17335;50.720;7.452;2023-05-02T01:10:26;99590.94;;;8.79;100.00
30554;BME280;17335;50.720;7.452;2023-05-02T01:13:00;99593.16;;;8.74;100.00
30554;BME280;17335;50.720;7.452;2023-05-02T01:15:29;99599.69;;;8.81;100.00
30554;BME280;17335;50.720;7.452;2023-05-02T01:17:59;99600.63;;;8.91;100.00
30554;BME280;17335;50.720;7.452;2023-05-02T01:20:28;99599.66;;;8.92;100.00
30554;BME280;17335;50.720;7.452;2023-05-02T01:23:01;99599.97;;;8.99;100.00
30554;BME280;17335;50.720;7.452;2023-05-02T01:25:48;99598.88;;;9.01;100.00
30554;BME280;17335;50.720;7.452;2023-05-02T01:28:54;99602.47;;;9.12;100.00
30554;BME280;17335;50.720;7.452;2023-05-02T01:31:24;99615.78;;;9.23;100.00
30554;BME280;17335;50.720;7.452;2023-05-02T01:33:53;99611.19;;;9.25;100.00
30554;BME280;17335;50.720;7.452;2023-05-02T01:36:23;99611.34;;;9.33;100.00
30554;BME280;17335;50.720;7.452;2023-05-02T01:38:53;99617.00;;;9.30;100.00
30554;BME280;17335;50.720;7.452;2023-05-02T01:41:22;99625.75;;;9.32;100.00
30554;BME280;17335;50.720;7.452;2023-05-02T01:43:53;99614.78;;;9.35;100.00
30554;BME280;17335;50.720;7.452;2023-05-02T01:46:23;99624.97;;;9.42;100.00
30554;BME280;17335;50.720;7.452;2023-05-02T01:48:51;99623.44;;;9.49;100.00
30554;BME280;17335;50.720;7.452;2023-05-02T01:51:19;99629.81;;;9.48;100.00
30554;BME280;17335;50.720;7.452;2023-05-02T01:53:47;99623.41;;;9.60;100.00
30554;BME280;17335;50.720;7.452;2023-05-02T01:56:17;99630.91;;;9.66;100.00
30554;BME280;17335;50.720;7.452;2023-05-02T01:58:45;99633.03;;;9.63;100.00
30554;BME280;17335;50.720;7.452;2023-05-02T02:03:43;99636.00;;;9.69;100.00
30554;BME280;17335;50.720;7.452;2023-05-02T02:06:13;99638.41;;;9.72;100.00
30554;BME280;17335;50.720;7.452;2023-05-02T02:08:41;99639.88;;;9.76;100.00
30554;BME280;17335;50.720;7.452;2023-05-02T02:11:10;99640.59;;;9.79;100.00
30554;BME280;17335;50.720;7.452;2023-05-02T02:13:43;99644.94;;;9.80;100.00
30554;BME280;17335;50.720;7.452;2023-05-02T02:16:18;99638.88;;;9.77;100.00
30554;BME280;17335;50.720;7.452;2023-05-02T02:18:46;99638.88;;;9.77;100.00
30554;BME280;17335;50.720;7.452;2023-05-02T02:21:16;99647.63;;;9.80;100.00
30554;BME280;17335;50.720;7.452;2023-05-02T02:23:46;99652.28;;;9.77;100.00
30554;BME280;17335;50.720;7.452;2023-05-02T02:26:14;99653.44;;;9.85;100.00
30554;BME280;17335;50.720;7.452;2023-05-02T02:28:42;99653.28;;;9.76;100.00
30554;BME280;17335;50.720;7.452;2023-05-02T02:31:09;99654.13;;;9.77;100.00
30554;BME280;17335;50.720;7.452;2023-05-02T02:33:36;99653.44;;;9.85;100.00
30554;BME280;17335;50.720;7.452;2023-05-02T02:36:11;99654.38;;;9.74;100.00
30554;BME280;17335;50.720;7.452;2023-05-02T02:41:23;99666.63;;;9.67;100.00
30554;BME280;17335;50.720;7.452;2023-05-02T02:44:46;99663.72;;;9.58;100.00
30554;BME280;17335;50.720;7.452;2023-05-02T02:46:51;99661.63;;;9.62;100.00
30554;BME280;17335;50.720;7.452;2023-05-02T02:49:26;99674.31;;;9.60;100.00
30554;BME280;17335;50.720;7.452;2023-05-02T02:54:42;99675.50;;;9.67;100.00
30554;BME280;17335;50.720;7.452;2023-05-02T02:57:19;99676.16;;;9.60;100.00
30554;BME280;17335;50.720;7.452;2023-05-02T03:02:28;99687.72;;;9.60;100.00
30554;BME280;17335;50.720;7.452;2023-05-02T03:04:57;99687.00;;;9.58;100.00
30554;BME280;17335;50.720;7.452;2023-05-02T03:07:26;99682.75;;;9.55;100.00
30554;BME280;17335;50.720;7.452;2023-05-02T03:09:52;99684.13;;;9.50;100.00
30554;BME280;17335;50.720;7.452;2023-05-02T03:12:19;99690.44;;;9.49;100.00
30554;BME280;17335;50.720;7.452;2023-05-02T03:14:46;99696.69;;;9.49;100.00
30554;BME280;17335;50.720;7.452;2023-05-02T03:17:12;99703.09;;;9.58;100.00
30554;BME280;17335;50.720;7.452;2023-05-02T03:19:39;99701.63;;;9.54;100.00
30554;BME280;17335;50.720;7.452;2023-05-02T03:22:06;99700.06;;;9.51;100.00
30554;BME280;17335;50.720;7.452;2023-05-02T03:24:32;99698.94;;;9.54;100.00
30554;BME280;17335;50.720;7.452;2023-05-02T03:26:58;99705.31;;;9.53;100.00
30554;BME280;17335;50.720;7.452;2023-05-02T03:29:25;99704.38;;;9.43;100.00
30554;BME280;17335;50.720;7.452;2023-05-02T03:31:52;99709.75;;;9.43;100.00
30554;BME280;17335;50.720;7.452;2023-05-02T03:34:18;99715.09;;;9.43;100.00
30554;BME280;17335;50.720;7.452;2023-05-02T03:36:47;99716.31;;;9.38;100.00
30554;BME280;17335;50.720;7.452;2023-05-02T03:39:14;99721.19;;;9.45;100.00
30554;BME280;17335;50.720;7.452;2023-05-02T03:41:40;99720.47;;;9.43;100.00
30554;BME280;17335;50.720;7.452;2023-05-02T03:44:08;99718.63;;;9.43;100.00
30554;BME280;17335;50.720;7.452;2023-05-02T03:46:35;99722.91;;;9.34;100.00
30554;BME280;17335;50.720;7.452;2023-05-02T03:49:02;99724.22;;;9.40;100.00
30554;BME280;17335;50.720;7.452;2023-05-02T03:51:28;99723.75;;;9.35;100.00
30554;BME280;17335;50.720;7.452;2023-05-02T03:53:55;99720.84;;;9.38;100.00
30554;BME280;17335;50.720;7.452;2023-05-02T03:56:21;99726.31;;;9.36;100.00
30554;BME280;17335;50.720;7.452;2023-05-02T03:58:48;99727.03;;;9.38;100.00
30554;BME280;17335;50.720;7.452;2023-05-02T04:01:15;99733.84;;;9.43;100.00
30554;BME280;17335;50.720;7.452;2023-05-02T04:03:42;99729.00;;;9.36;100.00
30554;BME280;17335;50.720;7.452;2023-05-02T04:06:09;99726.31;;;9.36;100.00
30554;BME280;17335;50.720;7.452;2023-05-02T04:08:36;99739.97;;;9.33;100.00
30554;BME280;17335;50.720;7.452;2023-05-02T04:11:02;99738.53;;;9.29;100.00
30554;BME280;17335;50.720;7.452;2023-05-02T04:13:29;99737.75;;;9.38;100.00
30554;BME280;17335;50.720;7.452;2023-05-02T04:15:56;99740.25;;;9.30;100.00
30554;BME280;17335;50.720;7.452;2023-05-02T04:18:22;99738.28;;;9.32;100.00
30554;BME280;17335;50.720;7.452;2023-05-02T04:20:49;99744.84;;;9.28;100.00
30554;BME280;17335;50.720;7.452;2023-05-02T04:23:15;99735.84;;;9.29;100.00
30554;BME280;17335;50.720;7.452;2023-05-02T04:25:53;99746.56;;;9.29;100.00
30554;BME280;17335;50.720;7.452;2023-05-02T04:28:20;99756.03;;;9.33;100.00
30554;BME280;17335;50.720;7.452;2023-05-02T04:30:50;99755.56;;;9.28;100.00
30554;BME280;17335;50.720;7.452;2023-05-02T04:33:17;99764.00;;;9.24;100.00
30554;BME280;17335;50.720;7.452;2023-05-02T04:35:43;99763.22;;;9.33;100.00
30554;BME280;17335;50.720;7.452;2023-05-02T04:38:11;99769.47;;;9.22;100.00
30554;BME280;17335;50.720;7.452;2023-05-02T04:40:37;99774.72;;;9.24;100.00
30554;BME280;17335;50.720;7.452;2023-05-02T04:43:04;99785.03;;;9.28;100.00
30554;BME280;17335;50.720;7.452;2023-05-02T04:45:30;99781.38;;;9.29;100.00
30554;BME280;17335;50.720;7.452;2023-05-02T04:47:57;99775.53;;;9.35;100.00
30554;BME280;17335;50.720;7.452;2023-05-02T04:50:24;99784.06;;;9.41;100.00
30554;BME280;17335;50.720;7.452;2023-05-02T04:52:51;99776.97;;;9.39;100.00
30554;BME280;17335;50.720;7.452;2023-05-02T04:55:18;99790.84;;;9.45;100.00
30554;BME280;17335;50.720;7.452;2023-05-02T04:57:44;99792.75;;;9.54;100.00
30554;BME280;17335;50.720;7.452;2023-05-02T05:00:11;99790.84;;;9.45;100.00
30554;BME280;17335;50.720;7.452;2023-05-02T05:02:38;99787.22;;;9.46;100.00
30554;BME280;17335;50.720;7.452;2023-05-02T05:05:05;99796.22;;;9.45;100.00
30554;BME280;17335;50.720;7.452;2023-05-02T05:07:32;99794.25;;;9.47;100.00
30554;BME280;17335;50.720;7.452;2023-05-02T05:09:58;99801.31;;;9.48;100.00
30554;BME280;17335;50.720;7.452;2023-05-02T05:12:26;99808.13;;;9.52;100.00
30554;BME280;17335;50.720;7.452;2023-05-02T05:14:52;99804.25;;;9.45;100.00
30554;BME280;17335;50.720;7.452;2023-05-02T05:17:19;99810.06;;;9.50;100.00
30554;BME280;17335;50.720;7.452;2023-05-02T05:19:45;99809.38;;;9.48;100.00
30554;BME280;17335;50.720;7.452;2023-05-02T05:22:12;99807.28;;;9.51;100.00
30554;BME280;17335;50.720;7.452;2023-05-02T05:24:39;99807.88;;;9.55;100.00
30554;BME280;17335;50.720;7.452;2023-05-02T05:27:05;99812.03;;;9.48;100.00
30554;BME280;17335;50.720;7.452;2023-05-02T05:29:32;99822.88;;;9.46;100.00
30554;BME280;17335;50.720;7.452;2023-05-02T05:31:58;99819.25;;;9.47;100.00
30554;BME280;17335;50.720;7.452;2023-05-02T05:34:25;99829.09;;;9.47;100.00
30554;BME280;17335;50.720;7.452;2023-05-02T05:36:52;99833.47;;;9.48;100.00
30554;BME280;17335;50.720;7.452;2023-05-02T05:39:19;99835.44;;;9.46;100.00
30554;BME280;17335;50.720;7.452;2023-05-02T05:41:45;99839.19;;;9.54;100.00
30554;BME280;17335;50.720;7.452;2023-05-02T05:44:12;99841.75;;;9.56;100.00
30554;BME280;17335;50.720;7.452;2023-05-02T05:46:39;99846.59;;;9.62;100.00
30554;BME280;17335;50.720;7.452;2023-05-02T05:49:06;99846.22;;;9.67;100.00
30554;BME280;17335;50.720;7.452;2023-05-02T05:51:34;99860.22;;;9.70;100.00
30554;BME280;17335;50.720;7.452;2023-05-02T05:54:00;99853.91;;;9.71;100.00
30554;BME280;17335;50.720;7.452;2023-05-02T05:56:27;99850.09;;;9.74;100.00
30554;BME280;17335;50.720;7.452;2023-05-02T05:58:53;99862.78;;;9.72;100.00
30554;BME280;17335;50.720;7.452;2023-05-02T06:01:20;99862.66;;;9.73;100.00
30554;BME280;17335;50.720;7.452;2023-05-02T06:03:47;99867.91;;;9.75;100.00
30554;BME280;17335;50.720;7.452;2023-05-02T06:06:13;99861.41;;;9.77;100.00
30554;BME280;17335;50.720;7.452;2023-05-02T06:08:40;99869.09;;;9.82;100.00
30554;BME280;17335;50.720;7.452;2023-05-02T06:11:09;99872.00;;;9.90;100.00
30554;BME280;17335;50.720;7.452;2023-05-02T06:13:39;99862.13;;;9.80;100.00
30554;BME280;17335;50.720;7.452;2023-05-02T06:16:05;99877.59;;;9.87;100.00
30554;BME280;17335;50.720;7.452;2023-05-02T06:18:32;99882.97;;;9.87;100.00
30554;BME280;17335;50.720;7.452;2023-05-02T06:21:03;99881.00;;;9.89;100.00
30554;BME280;17335;50.720;7.452;2023-05-02T06:23:30;99874.53;;;9.92;100.00
30554;BME280;17335;50.720;7.452;2023-05-02T06:25:59;99879.13;;;10.01;100.00
30554;BME280;17335;50.720;7.452;2023-05-02T06:28:26;99888.91;;;9.91;100.00
30554;BME280;17335;50.720;7.452;2023-05-02T06:30:57;99889.94;;;9.79;100.00
30554;BME280;17335;50.720;7.452;2023-05-02T06:33:25;99887.00;;;9.82;100.00
30554;BME280;17335;50.720;7.452;2023-05-02T06:35:52;99897.75;;;9.82;100.00
30554;BME280;17335;50.720;7.452;2023-05-02T06:38:19;99904.78;;;9.83;100.00
30554;BME280;17335;50.720;7.452;2023-05-02T06:40:46;99902.81;;;9.85;100.00
30554;BME280;17335;50.720;7.452;2023-05-02T06:43:13;99912.28;;;10.00;100.00
30554;BME280;17335;50.720;7.452;2023-05-02T06:45:40;99916.22;;;9.96;100.00
30554;BME280;17335;50.720;7.452;2023-05-02T06:48:07;99921.44;;;9.98;100.00
30554;BME280;17335;50.720;7.452;2023-05-02T06:50:34;99916.09;;;9.98;100.00
30554;BME280;17335;50.720;7.452;2023-05-02T06:53:01;99924.84;;;10.00;100.00
30554;BME280;17335;50.720;7.452;2023-05-02T06:55:27;99931.34;;;9.97;100.00
30554;BME280;17335;50.720;7.452;2023-05-02T06:57:53;99940.81;;;10.01;100.00
30554;BME280;17335;50.720;7.452;2023-05-02T07:00:21;99931.66;;;10.04;100.00
30554;BME280;17335;50.720;7.452;2023-05-02T07:02:48;99930.81;;;10.03;100.00
30554;BME280;17335;50.720;7.452;2023-05-02T07:05:15;99939.09;;;10.11;100.00
30554;BME280;17335;50.720;7.452;2023-05-02T07:07:42;99941.00;;;10.21;100.00
30554;BME280;17335;50.720;7.452;2023-05-02T07:10:09;99947.94;;;10.23;100.00
30554;BME280;17335;50.720;7.452;2023-05-02T07:12:37;99943.06;;;10.28;100.00
30554;BME280;17335;50.720;7.452;2023-05-02T07:15:05;99940.88;;;10.34;100.00
30554;BME280;17335;50.720;7.452;2023-05-02T07:17:31;99948.88;;;10.66;100.00
30554;BME280;17335;50.720;7.452;2023-05-02T07:19:58;99943.56;;;10.76;100.00
30554;BME280;17335;50.720;7.452;2023-05-02T07:22:25;99944.28;;;10.78;100.00
30554;BME280;17335;50.720;7.452;2023-05-02T07:25:00;99945.59;;;10.83;100.00
30554;BME280;17335;50.720;7.452;2023-05-02T07:27:27;99940.56;;;10.90;100.00
30554;BME280;17335;50.720;7.452;2023-05-02T07:29:53;99936.63;;;10.94;100.00
30554;BME280;17335;50.720;7.452;2023-05-02T07:32:20;99943.84;;;10.94;100.00
30554;BME280;17335;50.720;7.452;2023-05-02T07:34:51;99946.22;;;10.97;100.00
30554;BME280;17335;50.720;7.452;2023-05-02T07:37:22;99943.41;;;10.98;100.00
30554;BME280;17335;50.720;7.452;2023-05-02T07:39:49;99947.44;;;11.04;100.00
30554;BME280;17335;50.720;7.452;2023-05-02T07:42:15;99950.19;;;10.72;100.00
30554;BME280;17335;50.720;7.452;2023-05-02T07:44:41;99957.19;;;10.84;100.00
30554;BME280;17335;50.720;7.452;2023-05-02T07:47:08;99964.00;;;10.67;100.00
30554;BME280;17335;50.720;7.452;2023-05-02T07:49:35;99959.47;;;10.67;100.00
30554;BME280;17335;50.720;7.452;2023-05-02T07:52:03;99968.16;;;10.71;100.00
30554;BME280;17335;50.720;7.452;2023-05-02T07:54:29;99972.84;;;10.58;100.00
30554;BME280;17335;50.720;7.452;2023-05-02T07:56:55;99972.63;;;10.49;100.00
30554;BME280;17335;50.720;7.452;2023-05-02T07:59:23;99979.25;;;10.45;100.00
30554;BME280;17335;50.720;7.452;2023-05-02T08:01:50;99980.50;;;10.62;100.00
30554;BME280;17335;50.720;7.452;2023-05-02T08:04:16;99991.38;;;10.61;100.00
30554;BME280;17335;50.720;7.452;2023-05-02T08:06:44;99982.53;;;10.70;100.00
30554;BME280;17335;50.720;7.452;2023-05-02T08:09:10;99989.28;;;10.85;100.00
30554;BME280;17335;50.720;7.452;2023-05-02T08:11:37;99980.72;;;10.92;100.00
30554;BME280;17335;50.720;7.452;2023-05-02T08:14:03;99986.78;;;11.15;100.00
30554;BME280;17335;50.720;7.452;2023-05-02T08:16:30;99980.84;;;11.42;100.00
30554;BME280;17335;50.720;7.452;2023-05-02T08:18:56;99982.97;;;11.38;100.00
30554;BME280;17335;50.720;7.452;2023-05-02T08:21:23;99986.56;;;11.27;100.00
30554;BME280;17335;50.720;7.452;2023-05-02T08:23:49;99986.13;;;11.22;100.00
30554;BME280;17335;50.720;7.452;2023-05-02T08:26:16;99992.66;;;10.99;100.00
30554;BME280;17335;50.720;7.452;2023-05-02T08:28:44;99997.28;;;10.76;100.00
30554;BME280;17335;50.720;7.452;2023-05-02T08:31:11;100006.38;;;10.84;100.00
30554;BME280;17335;50.720;7.452;2023-05-02T08:33:38;100008.34;;;11.03;100.00
30554;BME280;17335;50.720;7.452;2023-05-02T08:36:11;99997.63;;;11.34;100.00
30554;BME280;17335;50.720;7.452;2023-05-02T08:38:38;100012.09;;;11.33;100.00
30554;BME280;17335;50.720;7.452;2023-05-02T08:41:17;100015.22;;;11.38;100.00
30554;BME280;17335;50.720;7.452;2023-05-02T08:43:44;100015.69;;;11.53;100.00
30554;BME280;17335;50.720;7.452;2023-05-02T08:46:12;100014.78;;;11.64;100.00
30554;BME280;17335;50.720;7.452;2023-05-02T08:48:41;100008.31;;;11.76;100.00
30554;BME280;17335;50.720;7.452;2023-05-02T08:51:10;100011.66;;;11.69;100.00
30554;BME280;17335;50.720;7.452;2023-05-02T08:53:38;100007.72;;;11.73;100.00
30554;BME280;17335;50.720;7.452;2023-05-02T08:56:06;100003.19;;;11.73;100.00
30554;BME280;17335;50.720;7.452;2023-05-02T08:58:37;100004.38;;;11.90;100.00
30554;BME280;17335;50.720;7.452;2023-05-02T09:01:18;100003.88;;;12.06;100.00
30554;BME280;17335;50.720;7.452;2023-05-02T09:03:47;100005.47;;;12.18;100.00
30554;BME280;17335;50.720;7.452;2023-05-02T09:06:19;100010.13;;;12.07;100.00
30554;BME280;17335;50.720;7.452;2023-05-02T09:08:47;100013.44;;;11.89;100.00
30554;BME280;17335;50.720;7.452;2023-05-02T09:11:15;100012.00;;;12.16;100.00
30554;BME280;17335;50.720;7.452;2023-05-02T09:13:49;100008.47;;;12.15;100.00
30554;BME280;17335;50.720;7.452;2023-05-02T09:16:19;100017.34;;;12.06;100.00
30554;BME280;17335;50.720;7.452;2023-05-02T09:18:50;100018.09;;;12.28;100.00
30554;BME280;17335;50.720;7.452;2023-05-02T09:21:18;100023.47;;;12.18;100.00
30554;BME280;17335;50.720;7.452;2023-05-02T09:23:51;100028.25;;;12.05;100.00
30554;BME280;17335;50.720;7.452;2023-05-02T09:26:25;100029.44;;;12.31;100.00
30554;BME280;17335;50.720;7.452;2023-05-02T09:28:58;100026.47;;;12.25;100.00
30554;BME280;17335;50.720;7.452;2023-05-02T09:31:28;100035.06;;;12.18;100.00
30554;BME280;17335;50.720;7.452;2023-05-02T09:34:19;100033.38;;;12.27;100.00
30554;BME280;17335;50.720;7.452;2023-05-02T09:36:50;100035.34;;;12.06;100.00
30554;BME280;17335;50.720;7.452;2023-05-02T09:39:22;100039.88;;;12.15;100.00
30554;BME280;17335;50.720;7.452;2023-05-02T09:41:52;100045.53;;;12.02;100.00
30554;BME280;17335;50.720;7.452;2023-05-02T09:44:23;100028.59;;;12.21;100.00
30554;BME280;17335;50.720;7.452;2023-05-02T09:46:52;100036.34;;;12.14;100.00
30554;BME280;17335;50.720;7.452;2023-05-02T09:49:38;100037.03;;;12.07;100.00
30554;BME280;17335;50.720;7.452;2023-05-02T09:52:15;100037.03;;;12.07;100.00
30554;BME280;17335;50.720;7.452;2023-05-02T09:54:42;100040.41;;;11.99;100.00
30554;BME280;17335;50.720;7.452;2023-05-02T09:57:08;100047.69;;;11.87;100.00
30554;BME280;17335;50.720;7.452;2023-05-02T09:59:38;100052.03;;;11.99;100.00
30554;BME280;17335;50.720;7.452;2023-05-02T10:02:05;100054.19;;;12.06;100.00
30554;BME280;17335;50.720;7.452;2023-05-02T10:04:33;100044.47;;;12.24;100.00
30554;BME280;17335;50.720;7.452;2023-05-02T10:07:01;100040.81;;;12.45;100.00
30554;BME280;17335;50.720;7.452;2023-05-02T10:09:29;100049.53;;;12.27;100.00
30554;BME280;17335;50.720;7.452;2023-05-02T10:12:00;100051.53;;;12.25;100.00
30554;BME280;17335;50.720;7.452;2023-05-02T10:14:30;100042.22;;;12.29;100.00
30554;BME280;17335;50.720;7.452;2023-05-02T10:17:04;100049.28;;;12.21;100.00
30554;BME280;17335;50.720;7.452;2023-05-02T10:19:47;100055.50;;;11.90;100.00
30554;BME280;17335;50.720;7.452;2023-05-02T10:22:18;100053.09;;;11.87;100.00
30554;BME280;17335;50.720;7.452;2023-05-02T10:24:47;100059.06;;;11.91;100.00
30554;BME280;17335;50.720;7.452;2023-05-02T10:27:14;100068.25;;;11.88;100.00
30554;BME280;17335;50.720;7.452;2023-05-02T10:29:41;100076.84;;;11.82;100.00
30554;BME280;17335;50.720;7.452;2023-05-02T10:32:08;100064.81;;;11.76;100.00
30554;BME280;17335;50.720;7.452;2023-05-02T10:34:37;100064.47;;;11.70;100.00
30554;BME280;17335;50.720;7.452;2023-05-02T10:37:06;100070.31;;;11.75;100.00
30554;BME280;17335;50.720;7.452;2023-05-02T10:39:32;100072.16;;;11.74;100.00
30554;BME280;17335;50.720;7.452;2023-05-02T10:42:01;100078.44;;;11.63;100.00
30554;BME280;17335;50.720;7.452;2023-05-02T10:46:59;100085.75;;;11.31;100.00
30554;BME280;17335;50.720;7.452;2023-05-02T10:49:26;100089.25;;;11.42;100.00
30554;BME280;17335;50.720;7.452;2023-05-02T10:51:55;100086.69;;;11.41;100.00
30554;BME280;17335;50.720;7.452;2023-05-02T10:54:23;100087.28;;;11.23;100.00
30554;BME280;17335;50.720;7.452;2023-05-02T10:57:08;100100.63;;;11.14;100.00
30554;BME280;17335;50.720;7.452;2023-05-02T10:59:41;100099.66;;;11.15;100.00
30554;BME280;17335;50.720;7.452;2023-05-02T11:05:04;100097.19;;;11.44;100.00
30554;BME280;17335;50.720;7.452;2023-05-02T11:07:34;100090.72;;;11.56;100.00
30554;BME280;17335;50.720;7.452;2023-05-02T11:12:49;100093.53;;;11.76;100.00
30554;BME280;17335;50.720;7.452;2023-05-02T11:18:00;100087.28;;;11.75;100.00
30554;BME280;17335;50.720;7.452;2023-05-02T11:20:37;100092.66;;;11.75;100.00
30554;BME280;17335;50.720;7.452;2023-05-02T11:23:19;100092.66;;;11.96;100.00
30554;BME280;17335;50.720;7.452;2023-05-02T11:25:54;100092.34;;;12.21;100.00
30554;BME280;17335;50.720;7.452;2023-05-02T11:31:04;100087.28;;;12.47;100.00
30554;BME280;17335;50.720;7.452;2023-05-02T11:33:31;100077.41;;;12.57;100.00
30554;BME280;17335;50.720;7.452;2023-05-02T11:35:58;100080.53;;;12.62;100.00
30554;BME280;17335;50.720;7.452;2023-05-02T11:38:27;100080.09;;;12.76;100.00
30554;BME280;17335;50.720;7.452;2023-05-02T11:41:00;100078.84;;;13.00;100.00
30554;BME280;17335;50.720;7.452;2023-05-02T11:43:28;100069.59;;;13.12;100.00
30554;BME280;17335;50.720;7.452;2023-05-02T11:45:58;100073.88;;;13.05;100.00
30554;BME280;17335;50.720;7.452;2023-05-02T11:48:25;100073.88;;;13.05;100.00
30554;BME280;17335;50.720;7.452;2023-05-02T11:50:57;100075.97;;;13.11;100.00
30554;BME280;17335;50.720;7.452;2023-05-02T11:53:26;100073.13;;;13.13;100.00
30554;BME280;17335;50.720;7.452;2023-05-02T11:56:02;100076.53;;;13.25;100.00
30554;BME280;17335;50.720;7.452;2023-05-02T11:58:30;100088.16;;;13.25;100.00
30554;BME280;17335;50.720;7.452;2023-05-02T12:01:12;100080.38;;;13.32;100.00
30554;BME280;17335;50.720;7.452;2023-05-02T12:03:39;100076.53;;;13.25;100.00
30554;BME280;17335;50.720;7.452;2023-05-02T12:06:13;100072.84;;;13.26;100.00
30554;BME280;17335;50.720;7.452;2023-05-02T12:08:43;100076.97;;;13.49;100.00
30554;BME280;17335;50.720;7.452;2023-05-02T12:11:14;100080.66;;;13.48;100.00
30554;BME280;17335;50.720;7.452;2023-05-02T12:13:48;100074.41;;;13.38;100.00
30554;BME280;17335;50.720;7.452;2023-05-02T12:16:16;100079.38;;;13.43;100.00
30554;BME280;17335;50.720;7.452;2023-05-02T12:18:44;100075.94;;;13.50;100.00
30554;BME280;17335;50.720;7.452;2023-05-02T12:21:11;100081.47;;;13.59;100.00
30554;BME280;17335;50.720;7.452;2023-05-02T12:23:38;100072.69;;;13.47;100.00
30554;BME280;17335;50.720;7.452;2023-05-02T12:26:20;100088.16;;;13.55;100.00
30554;BME280;17335;50.720;7.452;2023-05-02T12:28:51;100095.81;;;13.30;100.00
30554;BME280;17335;50.720;7.452;2023-05-02T12:31:19;100088.31;;;13.04;100.00
30554;BME280;17335;50.720;7.452;2023-05-02T12:33:46;100090.00;;;13.25;100.00
30554;BME280;17335;50.720;7.452;2023-05-02T12:36:13;100090.00;;;13.54;100.00
30554;BME280;17335;50.720;7.452;2023-05-02T12:38:47;100085.53;;;13.82;100.00
30554;BME280;17335;50.720;7.452;2023-05-02T12:41:14;100085.75;;;13.52;100.00
30554;BME280;17335;50.720;7.452;2023-05-02T12:43:48;100094.97;;;13.20;100.00
30554;BME280;17335;50.720;7.452;2023-05-02T12:46:15;100104.06;;;13.09;100.00
30554;BME280;17335;50.720;7.452;2023-05-02T12:48:41;100103.91;;;12.71;100.00
30554;BME280;17335;50.720;7.452;2023-05-02T12:51:28;100107.75;;;12.69;100.00
30554;BME280;17335;50.720;7.452;2023-05-02T12:53:56;100113.31;;;12.97;100.00
30554;BME280;17335;50.720;7.452;2023-05-02T12:56:23;100114.59;;;13.31;100.00
30554;BME280;17335;50.720;7.452;2023-05-02T12:58:49;100109.34;;;13.40;100.00
30554;BME280;17335;50.720;7.452;2023-05-02T13:01:16;100109.59;;;13.27;100.00
30554;BME280;17335;50.720;7.452;2023-05-02T13:03:43;100116.69;;;13.28;100.00
30554;BME280;17335;50.720;7.452;2023-05-02T13:06:10;100106.19;;;13.25;100.00
30554;BME280;17335;50.720;7.452;2023-05-02T13:08:37;100113.72;;;13.21;100.00
30554;BME280;17335;50.720;7.452;2023-05-02T13:11:03;100116.97;;;13.25;100.00
30554;BME280;17335;50.720;7.452;2023-05-02T13:13:30;100120.06;;;12.62;100.00
30554;BME280;17335;50.720;7.452;2023-05-02T13:15:57;100127.28;;;12.61;100.00
30554;BME280;17335;50.720;7.452;2023-05-02T13:18:24;100121.91;;;12.81;100.00
30554;BME280;17335;50.720;7.452;2023-05-02T13:20:51;100116.69;;;12.69;100.00
30554;BME280;17335;50.720;7.452;2023-05-02T13:23:17;100118.28;;;12.91;100.00
30554;BME280;17335;50.720;7.452;2023-05-02T13:25:43;100118.09;;;13.03;100.00
30554;BME280;17335;50.720;7.452;2023-05-02T13:28:10;100112.88;;;13.21;100.00